createdAt,value
2023-11-30T00:01:11.227Z,95.30
2023-11-30T00:03:57.016Z,95.20
2023-11-30T00:06:43.595Z,95.00
2023-11-30T00:09:29.171Z,94.80
2023-11-30T00:12:15.031Z,94.90
2023-11-30T00:15:00.577Z,95.40
2023-11-30T00:17:46.204Z,96.30
2023-11-30T00:20:32.187Z,96.80
2023-11-30T00:23:17.497Z,96.50
2023-11-30T00:26:03.199Z,96.50
2023-11-30T00:28:51.313Z,96.60
2023-11-30T00:31:36.916Z,96.50
2023-11-30T00:34:22.891Z,96.20
2023-11-30T00:37:08.632Z,96.00
2023-11-30T00:39:54.350Z,96.00
2023-11-30T00:42:40.147Z,96.10
2023-11-30T00:45:26.004Z,96.10
2023-11-30T00:48:14.417Z,96.00
2023-11-30T00:51:00.112Z,95.70
2023-11-30T00:53:45.748Z,95.40
2023-11-30T00:56:31.434Z,94.80
2023-11-30T00:59:16.614Z,94.40
2023-11-30T01:02:02.334Z,94.00
2023-11-30T01:04:47.977Z,94.20
2023-11-30T01:07:33.764Z,94.40
2023-11-30T01:10:19.079Z,94.60
2023-11-30T01:13:04.866Z,94.70
2023-11-30T01:15:50.511Z,95.00
2023-11-30T01:18:36.859Z,94.80
2023-11-30T01:21:22.437Z,94.70
2023-11-30T01:24:08.073Z,95.30
2023-11-30T01:26:53.719Z,95.80
2023-11-30T01:29:38.835Z,95.60
2023-11-30T01:32:24.230Z,95.10
2023-11-30T01:35:10.038Z,94.60
2023-11-30T01:37:55.565Z,94.60
2023-11-30T01:40:42.485Z,94.90
2023-11-30T01:43:28.911Z,95.10
2023-11-30T01:46:14.976Z,95.00
2023-11-30T01:49:00.986Z,94.90
2023-11-30T01:51:46.418Z,94.90
2023-11-30T01:54:32.037Z,95.00
2023-11-30T01:57:17.627Z,94.80
2023-11-30T02:00:05.538Z,95.00
2023-11-30T02:02:59.036Z,95.00
2023-11-30T02:05:45.425Z,94.90
2023-11-30T02:08:30.837Z,95.00
2023-11-30T02:11:16.540Z,95.20
2023-11-30T02:14:04.398Z,95.20
2023-11-30T02:16:50.131Z,95.20
2023-11-30T02:19:35.606Z,95.40
2023-11-30T02:22:22.030Z,95.30
2023-11-30T02:25:08.751Z,95.40
2023-11-30T02:28:00.427Z,95.60
2023-11-30T02:30:47.795Z,95.60
2023-11-30T02:33:33.551Z,95.60
2023-11-30T02:36:20.365Z,95.70
2023-11-30T02:39:06.391Z,95.70
2023-11-30T02:41:52.642Z,95.80
2023-11-30T02:44:38.487Z,95.80
2023-11-30T02:47:23.841Z,95.90
2023-11-30T02:50:10.131Z,96.00
2023-11-30T02:52:59.844Z,96.10
2023-11-30T02:55:45.164Z,96.10
2023-11-30T02:58:30.797Z,96.00
2023-11-30T03:01:16.653Z,96.00
2023-11-30T03:04:02.121Z,96.30
2023-11-30T03:06:50.718Z,96.00
2023-11-30T03:09:41.939Z,95.90
2023-11-30T03:12:27.720Z,95.80
2023-11-30T03:15:15.031Z,95.70
2023-11-30T03:18:00.810Z,95.60
2023-11-30T03:20:47.194Z,95.60
2023-11-30T03:23:34.483Z,95.60
2023-11-30T03:26:20.170Z,95.70
2023-11-30T03:29:05.595Z,95.60
2023-11-30T03:31:51.369Z,95.60
2023-11-30T03:34:38.917Z,95.60
2023-11-30T03:37:24.686Z,95.80
2023-11-30T03:40:11.444Z,95.70
2023-11-30T03:42:57.055Z,95.70
2023-11-30T03:45:43.039Z,95.90
2023-11-30T03:48:28.871Z,96.00
2023-11-30T03:51:14.172Z,96.00
2023-11-30T03:54:00.065Z,96.00
2023-11-30T03:56:45.372Z,96.00
2023-11-30T03:59:32.791Z,96.10
2023-11-30T04:02:19.044Z,96.10
2023-11-30T04:05:06.682Z,96.10
2023-11-30T04:07:52.074Z,96.10
2023-11-30T04:10:37.656Z,96.10
2023-11-30T04:13:26.891Z,96.20
2023-11-30T04:16:18.182Z,96.30
2023-11-30T04:19:04.070Z,96.30
2023-11-30T04:21:49.450Z,96.20
2023-11-30T04:24:35.536Z,96.20
2023-11-30T04:27:21.951Z,96.30
2023-11-30T04:30:08.548Z,96.40
2023-11-30T04:32:54.941Z,96.40
2023-11-30T04:35:44.103Z,96.50
2023-11-30T04:38:29.801Z,96.70
2023-11-30T04:41:20.292Z,96.70
2023-11-30T04:44:06.479Z,97.00
2023-11-30T04:46:53.372Z,97.00
2023-11-30T04:49:41.636Z,96.90
2023-11-30T04:52:27.287Z,97.20
2023-11-30T04:55:13.331Z,97.40
2023-11-30T04:57:58.773Z,97.30
2023-11-30T05:00:44.248Z,97.20
2023-11-30T05:03:29.987Z,96.80
2023-11-30T05:06:15.733Z,96.60
2023-11-30T05:09:01.684Z,96.70
2023-11-30T05:11:47.403Z,96.70
2023-11-30T05:14:33.045Z,96.90
2023-11-30T05:17:19.688Z,96.90
2023-11-30T05:20:05.756Z,96.60
2023-11-30T05:22:51.552Z,96.60
2023-11-30T05:25:37.042Z,96.70
2023-11-30T05:28:22.675Z,96.60
2023-11-30T05:31:09.005Z,96.30
2023-11-30T05:33:54.551Z,96.10
2023-11-30T05:36:40.033Z,96.20
2023-11-30T05:39:25.932Z,96.70
2023-11-30T05:42:11.674Z,96.80
2023-11-30T05:44:58.052Z,96.70
2023-11-30T05:47:43.583Z,96.70
2023-11-30T05:50:29.580Z,96.70
2023-11-30T05:53:18.103Z,96.70
2023-11-30T05:56:03.761Z,96.80
2023-11-30T05:58:49.783Z,96.80
2023-11-30T06:01:35.478Z,97.00
2023-11-30T06:04:21.443Z,97.10
2023-11-30T06:07:08.165Z,96.90
2023-11-30T06:09:53.771Z,96.80
2023-11-30T06:12:42.792Z,96.70
2023-11-30T06:15:31.205Z,96.80
2023-11-30T06:18:17.194Z,96.90
2023-11-30T06:21:02.851Z,96.90
2023-11-30T06:23:49.020Z,96.90
2023-11-30T06:26:34.470Z,97.00
2023-11-30T06:29:21.185Z,97.00
2023-11-30T06:32:06.677Z,96.90
2023-11-30T06:34:52.379Z,96.90
2023-11-30T06:37:37.757Z,96.90
2023-11-30T06:40:23.172Z,96.60
2023-11-30T06:43:09.580Z,96.40
2023-11-30T06:45:55.254Z,96.50
2023-11-30T06:48:44.732Z,96.70
2023-11-30T06:51:30.136Z,96.80
2023-11-30T06:54:23.247Z,96.70
2023-11-30T06:57:11.896Z,96.60
2023-11-30T06:59:57.531Z,96.40
2023-11-30T07:02:44.160Z,96.60
2023-11-30T07:05:32.018Z,96.70
2023-11-30T07:08:17.553Z,96.80
2023-11-30T07:11:04.904Z,97.00
2023-11-30T07:13:55.104Z,96.90
2023-11-30T07:16:40.780Z,97.00
2023-11-30T07:19:26.268Z,97.00
2023-11-30T07:22:11.986Z,96.70
2023-11-30T07:24:57.679Z,96.50
2023-11-30T07:27:43.902Z,96.60
2023-11-30T07:30:30.249Z,96.90
2023-11-30T07:33:15.875Z,96.80
2023-11-30T07:36:01.958Z,97.20
2023-11-30T07:38:48.108Z,97.10
2023-11-30T07:41:33.371Z,97.00
2023-11-30T07:44:21.720Z,97.00
2023-11-30T07:47:06.909Z,97.20
2023-11-30T07:49:52.424Z,97.30
2023-11-30T07:52:39.857Z,97.20
2023-11-30T07:55:28.839Z,97.10
2023-11-30T07:58:14.258Z,96.90
2023-11-30T08:01:01.054Z,96.90
2023-11-30T08:03:48.024Z,97.00
2023-11-30T08:06:35.252Z,97.30
2023-11-30T08:09:25.822Z,97.10
2023-11-30T08:12:11.770Z,97.00
2023-11-30T08:14:59.937Z,96.90
2023-11-30T08:17:47.327Z,96.80
2023-11-30T08:20:32.821Z,96.80
2023-11-30T08:23:18.259Z,96.70
2023-11-30T08:26:11.992Z,96.70
2023-11-30T08:29:00.189Z,96.70
2023-11-30T08:31:45.721Z,97.00
2023-11-30T08:34:31.067Z,97.20
2023-11-30T08:37:19.592Z,97.40
2023-11-30T08:40:11.842Z,97.80
2023-11-30T08:42:57.229Z,98.20
2023-11-30T08:45:45.115Z,98.50
2023-11-30T08:48:33.004Z,98.30
2023-11-30T08:51:21.489Z,98.10
2023-11-30T08:54:08.118Z,98.40
2023-11-30T08:57:02.900Z,98.30
2023-11-30T08:59:50.544Z,97.80
2023-11-30T09:02:38.631Z,97.20
2023-11-30T09:05:24.974Z,96.90
2023-11-30T09:08:11.846Z,96.80
2023-11-30T09:10:58.110Z,96.80
2023-11-30T09:13:45.789Z,97.00
2023-11-30T09:16:33.201Z,97.40
2023-11-30T09:19:19.482Z,97.50
2023-11-30T09:22:05.246Z,97.80
2023-11-30T09:24:51.319Z,98.30
2023-11-30T09:27:39.329Z,98.60
2023-11-30T09:30:25.139Z,98.30
2023-11-30T09:33:11.268Z,98.90
2023-11-30T09:36:03.287Z,99.00
2023-11-30T09:38:48.937Z,98.80
2023-11-30T09:41:36.135Z,97.70
2023-11-30T09:44:21.949Z,97.20
2023-11-30T09:47:07.686Z,97.00
2023-11-30T09:49:52.999Z,97.00
2023-11-30T09:52:38.873Z,97.20
2023-11-30T09:55:26.639Z,97.00
2023-11-30T09:58:12.374Z,96.90
2023-11-30T10:01:02.345Z,97.40
2023-11-30T10:03:48.089Z,96.90
2023-11-30T10:06:33.801Z,96.30
2023-11-30T10:09:19.352Z,96.00
2023-11-30T10:12:05.790Z,96.30
2023-11-30T10:15:00.731Z,96.20
2023-11-30T10:17:47.726Z,96.60
2023-11-30T10:20:36.809Z,97.00
2023-11-30T10:23:23.283Z,97.10
2023-11-30T10:26:11.556Z,96.50
2023-11-30T10:28:58.925Z,95.90
2023-11-30T10:31:44.951Z,95.70
2023-11-30T10:34:35.954Z,95.90
2023-11-30T10:37:25.676Z,96.30
2023-11-30T10:40:13.707Z,95.50
2023-11-30T10:43:04.755Z,96.60
2023-11-30T10:45:57.380Z,96.60
2023-11-30T10:48:43.366Z,96.00
2023-11-30T10:51:29.204Z,96.20
2023-11-30T10:54:27.494Z,96.70
2023-11-30T10:57:14.321Z,96.50
2023-11-30T11:00:00.406Z,97.40
2023-11-30T11:02:51.398Z,97.40
2023-11-30T11:05:45.338Z,97.30
2023-11-30T11:08:32.347Z,97.20
2023-11-30T11:11:23.167Z,97.40
2023-11-30T11:14:08.869Z,97.50
2023-11-30T11:17:06.578Z,97.70
2023-11-30T11:19:54.485Z,97.10
2023-11-30T11:22:41.434Z,97.30
2023-11-30T11:25:27.448Z,97.20
2023-11-30T11:28:15.068Z,96.60
2023-11-30T11:31:00.580Z,96.80
2023-11-30T11:33:48.700Z,97.30
2023-11-30T11:36:39.074Z,97.00
2023-11-30T11:39:24.941Z,96.80
2023-11-30T11:42:10.520Z,96.30
2023-11-30T11:45:02.659Z,96.60
2023-11-30T11:47:48.343Z,96.70
2023-11-30T11:50:39.808Z,96.50
2023-11-30T11:53:27.339Z,96.20
2023-11-30T11:56:21.781Z,96.30
2023-11-30T11:59:07.260Z,96.80
2023-11-30T12:01:54.030Z,96.50
2023-11-30T12:04:40.992Z,96.40
2023-11-30T12:07:26.840Z,96.40
2023-11-30T12:10:13.955Z,96.40
2023-11-30T12:13:04.442Z,96.20
2023-11-30T12:15:50.713Z,96.30
2023-11-30T12:18:35.962Z,96.30
2023-11-30T12:21:23.551Z,95.60
2023-11-30T12:24:09.482Z,95.80
2023-11-30T12:26:54.952Z,95.50
2023-11-30T12:29:40.953Z,95.40
2023-11-30T12:32:30.551Z,95.90
2023-11-30T12:35:17.761Z,96.20
2023-11-30T12:38:08.753Z,96.10
2023-11-30T12:40:54.560Z,95.70
2023-11-30T12:43:40.144Z,95.90
2023-11-30T12:46:28.134Z,95.60
2023-11-30T12:49:13.614Z,96.10
2023-11-30T12:52:02.136Z,96.30
2023-11-30T12:54:53.533Z,95.70
2023-11-30T12:57:40.835Z,95.50
2023-11-30T13:00:26.777Z,96.80
2023-11-30T13:03:12.248Z,95.30
2023-11-30T13:05:57.454Z,94.50
2023-11-30T13:08:49.338Z,99.10
2023-11-30T13:11:37.418Z,98.30
2023-11-30T13:14:24.954Z,97.30
2023-11-30T13:17:10.756Z,94.70
2023-11-30T13:19:56.069Z,94.20
2023-11-30T13:22:45.800Z,94.20
2023-11-30T13:25:31.554Z,94.30
2023-11-30T13:28:16.876Z,96.90
2023-11-30T13:31:02.670Z,97.10
2023-11-30T13:33:50.920Z,95.30
2023-11-30T13:36:39.484Z,94.60
2023-11-30T13:39:25.046Z,95.40
2023-11-30T13:42:11.095Z,97.30
2023-11-30T13:44:56.780Z,99.10
2023-11-30T13:47:48.468Z,95.90
2023-11-30T13:50:42.074Z,94.00
2023-11-30T13:53:36.369Z,92.90
2023-11-30T13:56:22.907Z,93.60
2023-11-30T13:59:10.219Z,95.90
2023-11-30T14:01:57.161Z,94.50
2023-11-30T14:04:42.676Z,94.10
2023-11-30T14:07:31.177Z,95.00
2023-11-30T14:10:17.940Z,93.10
2023-11-30T14:13:05.586Z,92.00
2023-11-30T14:15:53.862Z,92.80
2023-11-30T14:18:39.606Z,93.40
2023-11-30T14:21:27.866Z,92.00
2023-11-30T14:24:15.636Z,92.20
2023-11-30T14:27:04.489Z,92.30
2023-11-30T14:29:50.240Z,92.80
2023-11-30T14:32:37.216Z,93.00
2023-11-30T14:35:24.104Z,93.80
2023-11-30T14:38:09.872Z,93.80
2023-11-30T14:40:59.089Z,94.00
2023-11-30T14:43:49.707Z,93.40
2023-11-30T14:46:37.346Z,94.00
2023-11-30T14:49:23.093Z,95.30
2023-11-30T14:52:08.710Z,95.50
2023-11-30T14:54:55.961Z,95.30
2023-11-30T14:57:44.947Z,94.80
2023-11-30T15:00:39.312Z,94.90
2023-11-30T15:03:26.232Z,95.10
2023-11-30T15:06:11.532Z,95.60
2023-11-30T15:09:20.601Z,95.60
2023-11-30T15:12:07.493Z,95.60
2023-11-30T15:14:53.182Z,95.60
2023-11-30T15:17:39.183Z,95.50
2023-11-30T15:20:26.410Z,95.60
2023-11-30T15:23:11.915Z,95.80
2023-11-30T15:25:59.064Z,95.90
2023-11-30T15:28:44.934Z,95.60
2023-11-30T15:31:36.087Z,96.00
2023-11-30T15:34:23.312Z,96.00
2023-11-30T15:37:10.884Z,95.90
2023-11-30T15:39:56.889Z,95.60
2023-11-30T15:42:43.686Z,95.90
2023-11-30T15:45:31.317Z,96.00
2023-11-30T15:48:18.471Z,95.80
2023-11-30T15:51:04.793Z,95.90
2023-11-30T15:53:50.216Z,95.80
2023-11-30T15:56:35.952Z,95.80
2023-11-30T15:59:26.137Z,95.60
2023-11-30T16:02:11.919Z,96.00
2023-11-30T16:04:57.504Z,95.90
2023-11-30T16:07:44.493Z,95.70
2023-11-30T16:10:30.420Z,95.70
2023-11-30T16:13:17.566Z,95.70
2023-11-30T16:16:05.767Z,95.60
2023-11-30T16:18:54.223Z,95.90
2023-11-30T16:21:39.859Z,95.60
2023-11-30T16:24:25.419Z,95.60
2023-11-30T16:27:15.545Z,95.70
2023-11-30T16:30:04.075Z,96.00
2023-11-30T16:32:49.947Z,96.30
2023-11-30T16:35:35.855Z,96.70
2023-11-30T16:38:21.543Z,96.40
2023-11-30T16:41:07.773Z,95.90
2023-11-30T16:43:54.797Z,95.90
2023-11-30T16:46:43.572Z,96.10
2023-11-30T16:49:29.135Z,96.40
2023-11-30T16:52:14.446Z,95.90
2023-11-30T16:55:00.595Z,95.50
2023-11-30T16:57:47.797Z,95.60
2023-11-30T17:00:59.101Z,96.30
2023-11-30T17:03:45.586Z,96.00
2023-11-30T17:06:30.894Z,96.30
2023-11-30T17:09:19.169Z,95.60
2023-11-30T17:12:16.053Z,95.60
2023-11-30T17:15:05.196Z,95.40
2023-11-30T17:17:51.075Z,95.80
2023-11-30T17:20:36.811Z,95.80
2023-11-30T17:23:26.115Z,96.00
2023-11-30T17:26:21.252Z,96.10
2023-11-30T17:29:07.165Z,95.60
2023-11-30T17:31:52.364Z,95.60
2023-11-30T17:34:39.473Z,95.50
2023-11-30T17:37:24.843Z,95.50
2023-11-30T17:40:12.095Z,95.80
2023-11-30T17:42:58.422Z,96.30
2023-11-30T17:45:44.133Z,96.40
2023-11-30T17:48:30.581Z,96.40
2023-11-30T17:51:19.666Z,96.30
2023-11-30T17:54:05.505Z,96.10
2023-11-30T17:56:50.880Z,95.80
2023-11-30T17:59:36.574Z,95.60
2023-11-30T18:02:31.871Z,95.60
2023-11-30T18:05:20.421Z,95.80
2023-11-30T18:08:08.289Z,96.20
2023-11-30T18:10:54.519Z,96.10
2023-11-30T18:13:39.952Z,96.30
2023-11-30T18:16:25.382Z,96.50
2023-11-30T18:19:12.948Z,96.70
2023-11-30T18:21:58.869Z,97.00
2023-11-30T18:24:44.749Z,96.60
2023-11-30T18:27:33.256Z,96.60
2023-11-30T18:30:20.527Z,96.70
2023-11-30T18:33:14.755Z,96.70
2023-11-30T18:36:02.557Z,96.50
2023-11-30T18:38:51.192Z,96.70
2023-11-30T18:41:40.216Z,97.00
2023-11-30T18:44:28.162Z,96.60
2023-11-30T18:47:15.749Z,96.70
2023-11-30T18:50:01.746Z,97.00
2023-11-30T18:52:48.933Z,97.00
2023-11-30T18:55:37.570Z,97.00
2023-11-30T18:58:22.975Z,97.20
2023-11-30T19:01:08.651Z,97.50
2023-11-30T19:03:54.574Z,97.40
2023-11-30T19:06:40.242Z,97.50
2023-11-30T19:09:26.364Z,97.50
2023-11-30T19:12:12.578Z,97.40
2023-11-30T19:14:58.633Z,97.50
2023-11-30T19:17:47.948Z,97.40
2023-11-30T19:20:33.689Z,97.30
2023-11-30T19:23:19.019Z,97.20
2023-11-30T19:26:05.307Z,96.90
2023-11-30T19:28:52.020Z,96.40
2023-11-30T19:31:40.632Z,96.00
2023-11-30T19:34:27.830Z,96.00
2023-11-30T19:37:23.386Z,95.80
2023-11-30T19:40:09.469Z,96.10
2023-11-30T19:42:55.036Z,96.50
2023-11-30T19:45:40.744Z,96.50
2023-11-30T19:48:27.346Z,96.70
2023-11-30T19:51:19.585Z,96.70
2023-11-30T19:54:06.465Z,97.00
2023-11-30T19:56:53.192Z,97.00
2023-11-30T19:59:48.315Z,97.00
2023-11-30T20:02:33.673Z,96.90
2023-11-30T20:05:19.698Z,96.90
2023-11-30T20:08:08.033Z,96.90
2023-11-30T20:10:54.130Z,96.70
2023-11-30T20:13:41.588Z,96.40
2023-11-30T20:16:28.278Z,96.90
2023-11-30T20:19:14.551Z,97.10
2023-11-30T20:22:00.045Z,97.30
2023-11-30T20:24:46.826Z,97.20
2023-11-30T20:27:32.342Z,97.40
2023-11-30T20:30:18.175Z,97.30
2023-11-30T20:33:03.788Z,96.80
2023-11-30T20:35:49.504Z,96.90
2023-11-30T20:38:43.316Z,97.00
2023-11-30T20:41:28.658Z,96.80
2023-11-30T20:44:14.197Z,96.90
2023-11-30T20:47:01.275Z,97.00
2023-11-30T20:49:49.773Z,96.90
2023-11-30T20:52:36.797Z,96.90
2023-11-30T20:55:23.779Z,96.90
2023-11-30T20:58:10.020Z,96.80
2023-11-30T21:00:58.655Z,96.80
2023-11-30T21:03:46.986Z,96.90
2023-11-30T21:06:32.736Z,96.30
2023-11-30T21:09:18.165Z,96.70
2023-11-30T21:12:04.193Z,96.90
2023-11-30T21:14:49.572Z,96.80
2023-11-30T21:17:35.130Z,96.80
2023-11-30T21:20:20.826Z,96.00
2023-11-30T21:23:08.067Z,96.00
2023-11-30T21:25:56.130Z,96.20
2023-11-30T21:28:41.463Z,96.70
2023-11-30T21:31:27.122Z,96.90
2023-11-30T21:34:13.099Z,96.80
2023-11-30T21:36:59.004Z,96.70
2023-11-30T21:39:44.839Z,96.90
2023-11-30T21:42:30.655Z,96.50
2023-11-30T21:45:15.991Z,95.80
2023-11-30T21:48:01.958Z,95.90
2023-11-30T21:50:47.496Z,96.30
2023-11-30T21:53:35.926Z,96.80
2023-11-30T21:56:22.458Z,96.40
2023-11-30T21:59:11.056Z,96.50
2023-11-30T22:01:56.878Z,96.30
2023-11-30T22:04:42.406Z,96.30
2023-11-30T22:07:28.176Z,96.40
2023-11-30T22:10:14.111Z,96.70
2023-11-30T22:13:00.044Z,97.00
2023-11-30T22:15:45.824Z,96.90
2023-11-30T22:18:32.856Z,96.90
2023-11-30T22:21:22.653Z,96.60
2023-11-30T22:24:08.740Z,96.90
2023-11-30T22:26:57.431Z,97.20
2023-11-30T22:29:43.574Z,97.10
2023-11-30T22:32:29.053Z,97.30
2023-11-30T22:35:14.753Z,97.70
2023-11-30T22:38:00.904Z,97.60
2023-11-30T22:40:46.631Z,97.30
2023-11-30T22:43:32.413Z,97.30
2023-11-30T22:46:19.551Z,97.10
2023-11-30T22:49:05.630Z,96.90
2023-11-30T22:51:51.035Z,96.70
2023-11-30T22:54:36.922Z,96.70
2023-11-30T22:57:23.354Z,97.00
2023-11-30T23:00:17.168Z,96.90
2023-11-30T23:03:02.977Z,97.20
2023-11-30T23:05:48.888Z,97.30
2023-11-30T23:08:34.306Z,97.30
2023-11-30T23:11:21.070Z,97.30
2023-11-30T23:14:08.495Z,97.40
2023-11-30T23:16:53.891Z,97.50
2023-11-30T23:19:43.433Z,97.60
2023-11-30T23:22:29.170Z,97.40
2023-11-30T23:25:15.445Z,97.30
2023-11-30T23:28:00.929Z,97.20
2023-11-30T23:30:51.340Z,97.30
2023-11-30T23:33:36.892Z,97.10
2023-11-30T23:36:22.476Z,97.10
2023-11-30T23:39:08.006Z,97.20
2023-11-30T23:41:54.996Z,97.40
2023-11-30T23:44:40.447Z,97.90
2023-11-30T23:47:26.379Z,97.30
2023-11-30T23:50:13.839Z,97.10
2023-11-30T23:52:59.499Z,97.00
2023-11-30T23:55:46.484Z,97.20
2023-11-30T23:58:31.761Z,97.40
